createdAt,value
2022-12-18T00:00:36.556Z,-3.62
2022-12-18T00:01:36.618Z,-3.59
2022-12-18T00:02:36.645Z,-3.59
2022-12-18T00:03:36.817Z,-3.60
2022-12-18T00:04:36.553Z,-3.60
2022-12-18T00:05:36.748Z,-3.72
2022-12-18T00:06:36.526Z,-3.78
2022-12-18T00:07:36.484Z,-3.83
2022-12-18T00:08:36.484Z,-3.88
2022-12-18T00:09:39.810Z,-3.85
2022-12-18T00:10:36.768Z,-3.79
2022-12-18T00:11:36.478Z,-3.79
2022-12-18T00:12:36.438Z,-3.76
2022-12-18T00:13:36.763Z,-3.82
2022-12-18T00:14:36.424Z,-3.79
2022-12-18T00:15:36.399Z,-3.78
2022-12-18T00:16:36.459Z,-3.79
2022-12-18T00:17:36.422Z,-3.75
2022-12-18T00:18:36.809Z,-3.69
2022-12-18T00:19:36.388Z,-3.66
2022-12-18T00:20:36.655Z,-3.66
2022-12-18T00:21:36.674Z,-3.69
2022-12-18T00:22:36.335Z,-3.81
2022-12-18T00:23:36.740Z,-3.79
2022-12-18T00:24:36.595Z,-3.88
2022-12-18T00:25:36.295Z,-3.90
2022-12-18T00:26:36.305Z,-3.86
2022-12-18T00:27:36.286Z,-3.82
2022-12-18T00:28:36.295Z,-3.81
2022-12-18T00:29:36.267Z,-3.79
2022-12-18T00:30:36.280Z,-3.78
2022-12-18T00:31:36.330Z,-3.75
2022-12-18T00:32:36.594Z,-3.69
2022-12-18T00:33:36.937Z,-3.67
2022-12-18T00:34:36.528Z,-3.63
2022-12-18T00:35:36.206Z,-3.59
2022-12-18T00:36:36.206Z,-3.60
2022-12-18T00:37:36.166Z,-3.57
2022-12-18T00:38:36.174Z,-3.59
2022-12-18T00:39:36.219Z,-3.67
2022-12-18T00:40:36.175Z,-3.78
2022-12-18T00:41:36.155Z,-3.79
2022-12-18T00:42:36.353Z,-3.76
2022-12-18T00:43:36.433Z,-3.79
2022-12-18T00:44:36.405Z,-3.81
2022-12-18T00:45:36.146Z,-3.86
2022-12-18T00:46:36.120Z,-3.91
2022-12-18T00:47:36.288Z,-3.91
2022-12-18T00:48:36.405Z,-3.93
2022-12-18T00:49:36.086Z,-3.99
2022-12-18T00:50:36.040Z,-4.00
2022-12-18T00:51:36.344Z,-4.03
2022-12-18T00:52:36.036Z,-4.03
2022-12-18T00:53:36.368Z,-4.11
2022-12-18T00:54:36.027Z,-4.21
2022-12-18T00:55:35.986Z,-4.29
2022-12-18T00:56:39.389Z,-4.30
2022-12-18T00:57:36.996Z,-4.29
2022-12-18T00:58:35.997Z,-4.30
2022-12-18T00:59:36.299Z,-4.25
2022-12-18T01:00:36.021Z,-4.25
2022-12-18T01:01:36.071Z,-4.25
2022-12-18T01:02:36.343Z,-4.39
2022-12-18T01:03:36.576Z,-4.42
2022-12-18T01:04:35.924Z,-4.42
2022-12-18T01:05:35.936Z,-4.40
2022-12-18T01:06:35.894Z,-4.39
2022-12-18T01:07:35.922Z,-4.46
2022-12-18T01:08:36.102Z,-4.40
2022-12-18T01:09:35.887Z,-4.38
2022-12-18T01:10:35.897Z,-4.33
2022-12-18T01:11:35.857Z,-4.29
2022-12-18T01:12:36.096Z,-4.25
2022-12-18T01:13:36.313Z,-4.24
2022-12-18T01:14:36.088Z,-4.21
2022-12-18T01:15:35.857Z,-4.18
2022-12-18T01:16:35.954Z,-4.11
2022-12-18T01:17:35.806Z,-4.04
2022-12-18T01:18:36.191Z,-4.03
2022-12-18T01:19:35.777Z,-4.00
2022-12-18T01:20:35.992Z,-3.99
2022-12-18T01:21:36.016Z,-3.97
2022-12-18T01:22:36.016Z,-3.97
2022-12-18T01:23:35.986Z,-3.94
2022-12-18T01:24:35.726Z,-3.94
2022-12-18T01:25:35.701Z,-3.99
2022-12-18T01:26:35.698Z,-3.97
2022-12-18T01:27:35.707Z,-3.99
2022-12-18T01:28:35.693Z,-4.01
2022-12-18T01:29:35.956Z,-4.03
2022-12-18T01:30:35.663Z,-4.04
2022-12-18T01:31:35.771Z,-4.06
2022-12-18T01:32:35.689Z,-4.07
2022-12-18T01:33:35.961Z,-4.12
2022-12-18T01:34:35.939Z,-4.14
2022-12-18T01:35:35.586Z,-4.18
2022-12-18T01:36:35.610Z,-4.24
2022-12-18T01:37:35.579Z,-4.28
2022-12-18T01:38:35.664Z,-4.30
2022-12-18T01:39:35.667Z,-4.30
2022-12-18T01:40:35.823Z,-4.32
2022-12-18T01:41:35.606Z,-4.36
2022-12-18T01:42:35.546Z,-4.46
2022-12-18T01:43:35.980Z,-4.51
2022-12-18T01:44:35.569Z,-4.53
2022-12-18T01:45:35.569Z,-4.56
2022-12-18T01:46:35.742Z,-4.58
2022-12-18T01:47:36.754Z,-4.65
2022-12-18T01:48:35.484Z,-4.65
2022-12-18T01:49:35.545Z,-4.65
2022-12-18T01:50:35.501Z,-4.67
2022-12-18T01:51:35.488Z,-4.63
2022-12-18T01:52:35.670Z,-4.63
2022-12-18T01:53:35.748Z,-4.60
2022-12-18T01:54:35.500Z,-4.56
2022-12-18T01:55:35.411Z,-4.51
2022-12-18T01:56:35.519Z,-4.49
2022-12-18T01:57:35.407Z,-4.46
2022-12-18T01:58:35.452Z,-4.46
2022-12-18T01:59:35.473Z,-4.57
2022-12-18T02:00:35.390Z,-4.61
2022-12-18T02:01:35.504Z,-4.60
2022-12-18T02:02:35.479Z,-4.58
2022-12-18T02:03:35.723Z,-4.58
2022-12-18T02:04:35.429Z,-4.58
2022-12-18T02:05:35.298Z,-4.57
2022-12-18T02:06:35.349Z,-4.58
2022-12-18T02:07:35.332Z,-4.57
2022-12-18T02:08:35.347Z,-4.57
2022-12-18T02:09:35.492Z,-4.54
2022-12-18T02:10:35.263Z,-4.50
2022-12-18T02:11:35.322Z,-4.46
2022-12-18T02:12:35.259Z,-4.39
2022-12-18T02:13:35.564Z,-4.40
2022-12-18T02:14:35.262Z,-4.51
2022-12-18T02:15:35.260Z,-4.49
2022-12-18T02:16:35.274Z,-4.49
2022-12-18T02:17:35.253Z,-4.50
2022-12-18T02:18:35.200Z,-4.57
2022-12-18T02:19:35.423Z,-4.63
2022-12-18T02:20:35.449Z,-4.68
2022-12-18T02:21:35.151Z,-4.67
2022-12-18T02:22:35.228Z,-4.67
2022-12-18T02:23:35.242Z,-4.69
2022-12-18T02:24:35.121Z,-4.71
2022-12-18T02:25:35.219Z,-4.67
2022-12-18T02:26:35.352Z,-4.60
2022-12-18T02:27:35.121Z,-4.61
2022-12-18T02:28:35.832Z,-4.63
2022-12-18T02:29:35.093Z,-4.72
2022-12-18T02:30:35.138Z,-4.86
2022-12-18T02:31:35.074Z,-5.00
2022-12-18T02:32:35.300Z,-4.99
2022-12-18T02:33:35.144Z,-4.96
2022-12-18T02:34:35.032Z,-4.90
2022-12-18T02:35:35.049Z,-4.85
2022-12-18T02:36:35.031Z,-4.75
2022-12-18T02:37:34.981Z,-4.74
2022-12-18T02:38:35.003Z,-4.75
2022-12-18T02:39:35.287Z,-4.74
2022-12-18T02:40:35.014Z,-4.72
2022-12-18T02:41:34.973Z,-4.69
2022-12-18T02:42:34.947Z,-4.69
2022-12-18T02:43:34.996Z,-4.67
2022-12-18T02:44:34.935Z,-4.65
2022-12-18T02:45:35.002Z,-4.61
2022-12-18T02:46:35.017Z,-4.56
2022-12-18T02:47:34.886Z,-4.49
2022-12-18T02:48:34.865Z,-4.47
2022-12-18T02:49:35.085Z,-4.43
2022-12-18T02:50:35.136Z,-4.43
2022-12-18T02:51:34.900Z,-4.39
2022-12-18T02:52:34.883Z,-4.42
2022-12-18T02:53:34.818Z,-4.51
2022-12-18T02:54:34.838Z,-4.57
2022-12-18T02:55:34.845Z,-4.56
2022-12-18T02:56:34.815Z,-4.57
2022-12-18T02:57:34.836Z,-4.54
2022-12-18T02:58:35.054Z,-4.61
2022-12-18T02:59:34.797Z,-4.61
2022-12-18T03:00:34.788Z,-4.56
2022-12-18T03:01:34.902Z,-4.54
2022-12-18T03:02:34.866Z,-4.65
2022-12-18T03:03:34.782Z,-4.68
2022-12-18T03:04:34.759Z,-4.71
2022-12-18T03:05:34.714Z,-4.89
2022-12-18T03:06:35.015Z,-4.96
2022-12-18T03:07:34.693Z,-4.97
2022-12-18T03:08:34.758Z,-4.96
2022-12-18T03:09:34.801Z,-5.06
2022-12-18T03:10:34.817Z,-5.10
2022-12-18T03:11:35.359Z,-5.13
2022-12-18T03:12:34.862Z,-5.06
2022-12-18T03:13:34.658Z,-4.99
2022-12-18T03:14:34.673Z,-5.00
2022-12-18T03:15:34.640Z,-5.06
2022-12-18T03:16:34.622Z,-4.96
2022-12-18T03:17:34.621Z,-4.90
2022-12-18T03:18:34.876Z,-4.81
2022-12-18T03:19:34.565Z,-4.78
2022-12-18T03:20:34.555Z,-4.77
2022-12-18T03:21:34.588Z,-4.71
2022-12-18T03:22:34.579Z,-4.65
2022-12-18T03:23:34.798Z,-4.57
2022-12-18T03:24:34.818Z,-4.57
2022-12-18T03:25:34.535Z,-4.54
2022-12-18T03:26:34.515Z,-4.53
2022-12-18T03:27:34.534Z,-4.50
2022-12-18T03:28:34.736Z,-4.53
2022-12-18T03:29:34.538Z,-4.54
2022-12-18T03:30:34.805Z,-4.53
2022-12-18T03:31:34.452Z,-4.56
2022-12-18T03:32:34.501Z,-4.58
2022-12-18T03:33:34.457Z,-4.58
2022-12-18T03:34:34.460Z,-4.57
2022-12-18T03:35:34.407Z,-4.60
2022-12-18T03:36:34.447Z,-4.63
2022-12-18T03:37:34.695Z,-4.61
2022-12-18T03:38:34.461Z,-4.63
2022-12-18T03:39:34.405Z,-4.65
2022-12-18T03:40:34.421Z,-4.61
2022-12-18T03:41:34.413Z,-4.58
2022-12-18T03:42:34.417Z,-4.65
2022-12-18T03:43:34.628Z,-4.74
2022-12-18T03:44:34.377Z,-4.77
2022-12-18T03:45:34.359Z,-4.81
2022-12-18T03:46:34.368Z,-4.89
2022-12-18T03:47:34.421Z,-4.93
2022-12-18T03:48:34.347Z,-4.90
2022-12-18T03:49:34.540Z,-4.87
2022-12-18T03:50:34.277Z,-4.85
2022-12-18T03:51:34.259Z,-4.87
2022-12-18T03:52:34.268Z,-4.89
2022-12-18T03:53:34.473Z,-4.90
2022-12-18T03:54:34.499Z,-4.96
2022-12-18T03:55:34.208Z,-4.93
2022-12-18T03:56:34.203Z,-4.87
2022-12-18T03:57:34.248Z,-4.81
2022-12-18T03:58:34.214Z,-4.75
2022-12-18T03:59:34.232Z,-4.75
2022-12-18T04:00:34.431Z,-4.71
2022-12-18T04:01:34.317Z,-4.77
2022-12-18T04:02:34.314Z,-4.78
2022-12-18T04:03:36.402Z,-4.77
2022-12-18T04:04:34.124Z,-4.78
2022-12-18T04:05:34.201Z,-4.81
2022-12-18T04:06:34.259Z,-4.77
2022-12-18T04:07:34.154Z,-4.78
2022-12-18T04:08:34.408Z,-4.69
2022-12-18T04:09:34.088Z,-4.65
2022-12-18T04:10:34.148Z,-4.61
2022-12-18T04:11:34.400Z,-4.68
2022-12-18T04:12:34.075Z,-4.69
2022-12-18T04:13:34.103Z,-4.71
2022-12-18T04:14:34.809Z,-4.71
2022-12-18T04:15:34.040Z,-4.71
2022-12-18T04:16:34.007Z,-4.67
2022-12-18T04:17:34.311Z,-4.67
2022-12-18T04:18:34.008Z,-4.69
2022-12-18T04:19:34.047Z,-4.79
2022-12-18T04:20:34.082Z,-4.83
2022-12-18T04:21:33.966Z,-4.85
2022-12-18T04:22:34.008Z,-4.89
2022-12-18T04:23:34.239Z,-4.93
2022-12-18T04:24:33.973Z,-4.96
2022-12-18T04:25:33.979Z,-4.99
2022-12-18T04:26:33.963Z,-4.99
2022-12-18T04:27:33.981Z,-4.95
2022-12-18T04:28:33.891Z,-4.92
2022-12-18T04:29:34.191Z,-4.87
2022-12-18T04:30:33.901Z,-4.86
2022-12-18T04:31:33.939Z,-4.86
2022-12-18T04:32:33.911Z,-4.86
2022-12-18T04:33:34.127Z,-4.99
2022-12-18T04:34:34.267Z,-5.04
2022-12-18T04:35:33.851Z,-5.08
2022-12-18T04:36:33.830Z,-5.19
2022-12-18T04:37:33.858Z,-5.23
2022-12-18T04:38:33.828Z,-5.18
2022-12-18T04:39:34.110Z,-5.17
2022-12-18T04:40:33.793Z,-5.17
2022-12-18T04:41:34.060Z,-5.08
2022-12-18T04:42:34.122Z,-5.07
2022-12-18T04:43:33.761Z,-5.00
2022-12-18T04:44:33.841Z,-4.97
2022-12-18T04:45:33.767Z,-4.90
2022-12-18T04:46:33.781Z,-4.87
2022-12-18T04:47:34.031Z,-4.81
2022-12-18T04:48:33.715Z,-4.78
2022-12-18T04:49:33.743Z,-4.83
2022-12-18T04:50:33.704Z,-4.81
2022-12-18T04:51:33.760Z,-4.79
2022-12-18T04:52:33.693Z,-4.79
2022-12-18T04:53:33.911Z,-4.75
2022-12-18T04:54:33.936Z,-4.72
2022-12-18T04:55:33.779Z,-4.74
2022-12-18T04:56:33.667Z,-4.77
2022-12-18T04:57:33.708Z,-4.85
2022-12-18T04:58:33.890Z,-4.86
2022-12-18T04:59:33.639Z,-4.86
2022-12-18T05:00:33.655Z,-4.85
2022-12-18T05:01:34.938Z,-4.86
2022-12-18T05:02:33.682Z,-4.81
2022-12-18T05:03:33.842Z,-4.86
2022-12-18T05:04:33.553Z,-4.93
2022-12-18T05:05:33.796Z,-4.95
2022-12-18T05:06:33.580Z,-4.97
2022-12-18T05:07:33.618Z,-5.00
2022-12-18T05:08:33.507Z,-5.07
2022-12-18T05:09:33.522Z,-5.10
2022-12-18T05:10:38.012Z,-5.17
2022-12-18T05:11:34.823Z,-5.29
2022-12-18T05:12:33.500Z,-5.32
2022-12-18T05:13:33.475Z,-5.32
2022-12-18T05:14:33.483Z,-5.27
2022-12-18T05:15:33.493Z,-5.26
2022-12-18T05:16:33.513Z,-5.22
2022-12-18T05:17:33.507Z,-5.19
2022-12-18T05:18:33.664Z,-5.11
2022-12-18T05:19:33.434Z,-5.08
2022-12-18T05:20:33.389Z,-5.06
2022-12-18T05:21:33.700Z,-4.99
2022-12-18T05:22:33.372Z,-4.92
2022-12-18T05:23:33.343Z,-4.89
2022-12-18T05:24:33.369Z,-4.85
2022-12-18T05:25:33.378Z,-4.85
2022-12-18T05:26:33.443Z,-5.00
2022-12-18T05:27:33.323Z,-4.99
2022-12-18T05:28:33.364Z,-4.97
2022-12-18T05:29:33.358Z,-4.95
2022-12-18T05:30:33.304Z,-4.95
2022-12-18T05:31:39.524Z,-4.90
2022-12-18T05:32:34.285Z,-4.92
2022-12-18T05:33:33.298Z,-4.92
2022-12-18T05:34:33.245Z,-4.90
2022-12-18T05:35:33.325Z,-4.90
2022-12-18T05:36:33.239Z,-5.07
2022-12-18T05:37:35.871Z,-5.18
2022-12-18T05:38:34.566Z,-5.19
2022-12-18T05:39:33.494Z,-5.19
2022-12-18T05:40:33.254Z,-5.19
2022-12-18T05:41:33.702Z,-5.18
2022-12-18T05:42:33.240Z,-5.13
2022-12-18T05:43:33.451Z,-5.19
2022-12-18T05:44:33.391Z,-5.14
2022-12-18T05:45:33.207Z,-5.10
2022-12-18T05:46:33.228Z,-4.99
2022-12-18T05:47:33.454Z,-4.92
2022-12-18T05:48:33.137Z,-4.85
2022-12-18T05:49:33.416Z,-4.83
2022-12-18T05:50:33.396Z,-4.86
2022-12-18T05:51:33.144Z,-4.83
2022-12-18T05:52:33.088Z,-4.89
2022-12-18T05:53:33.373Z,-4.90
2022-12-18T05:54:33.087Z,-4.92
2022-12-18T05:55:33.065Z,-4.90
2022-12-18T05:56:33.057Z,-4.83
2022-12-18T05:57:33.348Z,-4.83
2022-12-18T05:58:33.070Z,-4.81
2022-12-18T05:59:33.318Z,-4.83
2022-12-18T06:00:32.998Z,-4.78
2022-12-18T06:01:33.079Z,-4.74
2022-12-18T06:02:33.255Z,-4.74
2022-12-18T06:03:34.149Z,-4.72
2022-12-18T06:04:33.234Z,-4.68
2022-12-18T06:05:32.977Z,-4.68
2022-12-18T06:06:32.987Z,-4.75
2022-12-18T06:07:32.949Z,-4.77
2022-12-18T06:08:32.983Z,-4.74
2022-12-18T06:09:32.940Z,-4.72
2022-12-18T06:10:33.157Z,-4.68
2022-12-18T06:11:32.888Z,-4.63
2022-12-18T06:12:32.893Z,-4.60
2022-12-18T06:13:32.884Z,-4.56
2022-12-18T06:14:33.190Z,-4.54
2022-12-18T06:15:32.856Z,-4.54
2022-12-18T06:16:33.125Z,-4.58
2022-12-18T06:17:32.860Z,-4.67
2022-12-18T06:18:32.864Z,-4.67
2022-12-18T06:19:33.186Z,-4.63
2022-12-18T06:20:33.838Z,-4.60
2022-12-18T06:21:32.837Z,-4.61
2022-12-18T06:22:32.809Z,-4.61
2022-12-18T06:23:33.109Z,-4.63
2022-12-18T06:24:33.042Z,-4.61
2022-12-18T06:25:32.797Z,-4.60
2022-12-18T06:26:32.912Z,-4.57
2022-12-18T06:27:32.692Z,-4.54
2022-12-18T06:28:32.990Z,-4.58
2022-12-18T06:29:32.978Z,-4.60
2022-12-18T06:30:32.738Z,-4.57
2022-12-18T06:31:33.179Z,-4.57
2022-12-18T06:32:32.709Z,-4.57
2022-12-18T06:33:32.647Z,-4.58
2022-12-18T06:34:32.919Z,-4.58
2022-12-18T06:35:32.659Z,-4.58
2022-12-18T06:36:33.119Z,-4.61
2022-12-18T06:37:32.689Z,-4.65
2022-12-18T06:38:32.689Z,-4.63
2022-12-18T06:39:32.648Z,-4.61
2022-12-18T06:40:32.572Z,-4.60
2022-12-18T06:41:32.710Z,-4.61
2022-12-18T06:42:32.621Z,-4.67
2022-12-18T06:43:32.856Z,-4.68
2022-12-18T06:44:32.732Z,-4.63
2022-12-18T06:45:32.887Z,-4.65
2022-12-18T06:46:32.502Z,-4.67
2022-12-18T06:47:32.550Z,-4.65
2022-12-18T06:48:32.459Z,-4.63
2022-12-18T06:49:32.488Z,-4.67
2022-12-18T06:50:32.680Z,-4.69
2022-12-18T06:51:32.491Z,-4.77
2022-12-18T06:52:32.507Z,-4.79
2022-12-18T06:53:32.719Z,-4.78
2022-12-18T06:54:32.445Z,-4.77
2022-12-18T06:55:32.393Z,-4.77
2022-12-18T06:56:32.428Z,-4.72
2022-12-18T06:57:32.379Z,-4.69
2022-12-18T06:58:32.428Z,-4.68
2022-12-18T06:59:32.470Z,-4.65
2022-12-18T07:00:32.399Z,-4.65
2022-12-18T07:01:32.476Z,-4.74
2022-12-18T07:02:32.476Z,-4.75
2022-12-18T07:03:32.330Z,-4.72
2022-12-18T07:04:32.320Z,-4.87
2022-12-18T07:05:32.339Z,-4.99
2022-12-18T07:06:32.310Z,-4.97
2022-12-18T07:07:32.338Z,-4.92
2022-12-18T07:08:32.291Z,-4.85
2022-12-18T07:09:32.997Z,-4.79
2022-12-18T07:10:32.309Z,-4.79
2022-12-18T07:11:32.299Z,-4.79
2022-12-18T07:12:32.233Z,-4.75
2022-12-18T07:13:32.541Z,-4.75
2022-12-18T07:14:32.234Z,-4.69
2022-12-18T07:15:32.563Z,-4.68
2022-12-18T07:16:32.236Z,-4.65
2022-12-18T07:17:32.213Z,-4.57
2022-12-18T07:18:32.191Z,-4.54
2022-12-18T07:19:32.160Z,-4.51
2022-12-18T07:20:32.178Z,-4.56
2022-12-18T07:21:32.170Z,-4.54
2022-12-18T07:22:32.144Z,-4.68
2022-12-18T07:23:32.221Z,-4.68
2022-12-18T07:24:32.140Z,-4.69
2022-12-18T07:25:32.121Z,-4.68
2022-12-18T07:26:32.100Z,-4.71
2022-12-18T07:27:32.101Z,-4.74
2022-12-18T07:28:32.129Z,-4.71
2022-12-18T07:29:32.070Z,-4.67
2022-12-18T07:30:32.063Z,-4.63
2022-12-18T07:31:32.382Z,-4.57
2022-12-18T07:32:32.041Z,-4.56
2022-12-18T07:33:32.050Z,-4.56
2022-12-18T07:34:32.064Z,-4.53
2022-12-18T07:35:32.285Z,-4.51
2022-12-18T07:36:32.251Z,-4.54
2022-12-18T07:37:31.990Z,-4.58
2022-12-18T07:38:31.971Z,-4.61
2022-12-18T07:39:31.982Z,-4.67
2022-12-18T07:40:31.943Z,-4.63
2022-12-18T07:41:32.218Z,-4.60
2022-12-18T07:42:32.002Z,-4.60
2022-12-18T07:43:32.217Z,-4.61
2022-12-18T07:44:31.965Z,-4.57
2022-12-18T07:45:32.686Z,-4.53
2022-12-18T07:46:31.913Z,-4.49
2022-12-18T07:47:31.914Z,-4.47
2022-12-18T07:48:31.911Z,-4.42
2022-12-18T07:49:32.153Z,-4.39
2022-12-18T07:50:31.874Z,-4.35
2022-12-18T07:51:32.156Z,-4.33
2022-12-18T07:52:31.950Z,-4.30
2022-12-18T07:53:32.629Z,-4.24
2022-12-18T07:54:32.101Z,-4.22
2022-12-18T07:55:59.997Z,-4.21
2022-12-18T07:56:32.803Z,-4.22
2022-12-18T07:57:50.119Z,-4.22
2022-12-18T07:58:32.904Z,-4.24
2022-12-18T07:59:31.861Z,-4.29
2022-12-18T08:00:32.055Z,-4.33
2022-12-18T08:01:31.966Z,-4.35
2022-12-18T08:02:32.105Z,-4.35
2022-12-18T08:03:31.775Z,-4.35
2022-12-18T08:04:32.074Z,-4.38
2022-12-18T08:05:31.704Z,-4.36
2022-12-18T08:06:31.714Z,-4.32
2022-12-18T08:07:31.741Z,-4.30
2022-12-18T08:08:31.743Z,-4.35
2022-12-18T08:09:31.714Z,-4.35
2022-12-18T08:10:31.749Z,-4.33
2022-12-18T08:11:31.670Z,-4.32
2022-12-18T08:12:31.671Z,-4.30
2022-12-18T08:13:31.696Z,-4.29
2022-12-18T08:14:32.179Z,-4.29
2022-12-18T08:15:31.873Z,-4.29
2022-12-18T08:16:31.701Z,-4.28
2022-12-18T08:17:31.630Z,-4.24
2022-12-18T08:18:31.618Z,-4.24
2022-12-18T08:19:31.674Z,-4.29
2022-12-18T08:20:31.589Z,-4.33
2022-12-18T08:21:31.804Z,-4.39
2022-12-18T08:22:31.862Z,-4.54
2022-12-18T08:23:31.547Z,-4.56
2022-12-18T08:24:31.526Z,-4.56
2022-12-18T08:25:31.533Z,-4.57
2022-12-18T08:26:31.559Z,-4.60
2022-12-18T08:27:31.531Z,-4.54
2022-12-18T08:28:31.755Z,-4.53
2022-12-18T08:29:31.841Z,-4.53
2022-12-18T08:30:31.601Z,-4.47
2022-12-18T08:31:31.608Z,-4.47
2022-12-18T08:32:31.505Z,-4.47
2022-12-18T08:33:31.497Z,-4.40
2022-12-18T08:34:31.460Z,-4.40
2022-12-18T08:35:36.362Z,-4.38
2022-12-18T08:36:32.426Z,-4.30
2022-12-18T08:37:31.517Z,-4.29
2022-12-18T08:38:31.436Z,-4.28
2022-12-18T08:39:31.708Z,-4.24
2022-12-18T08:40:31.389Z,-4.25
2022-12-18T08:41:31.337Z,-4.25
2022-12-18T08:42:32.183Z,-4.20
2022-12-18T08:43:31.346Z,-4.21
2022-12-18T08:44:31.367Z,-4.20
2022-12-18T08:45:31.419Z,-4.21
2022-12-18T08:46:31.349Z,-4.28
2022-12-18T08:47:31.576Z,-4.24
2022-12-18T08:48:31.317Z,-4.21
2022-12-18T08:49:31.592Z,-4.18
2022-12-18T08:50:31.291Z,-4.15
2022-12-18T08:51:31.508Z,-4.15
2022-12-18T08:52:31.269Z,-4.20
2022-12-18T08:53:35.465Z,-4.20
2022-12-18T08:54:31.217Z,-4.20
2022-12-18T08:55:31.236Z,-4.15
2022-12-18T08:56:31.525Z,-4.12
2022-12-18T08:57:31.385Z,-4.15
2022-12-18T08:58:31.248Z,-4.11
2022-12-18T08:59:31.458Z,-4.12
2022-12-18T09:00:31.161Z,-4.14
2022-12-18T09:01:31.458Z,-4.18
2022-12-18T09:02:31.476Z,-4.18
2022-12-18T09:03:31.497Z,-4.14
2022-12-18T09:04:31.148Z,-4.11
2022-12-18T09:05:31.456Z,-4.06
2022-12-18T09:06:31.156Z,-4.07
2022-12-18T09:07:31.175Z,-4.03
2022-12-18T09:08:31.132Z,-3.99
2022-12-18T09:09:31.120Z,-3.99
2022-12-18T09:10:31.131Z,-3.94
2022-12-18T09:11:31.818Z,-3.88
2022-12-18T09:12:31.108Z,-3.86
2022-12-18T09:13:31.044Z,-3.86
2022-12-18T09:14:31.332Z,-3.82
2022-12-18T09:15:31.043Z,-3.78
2022-12-18T09:16:32.733Z,-3.86
2022-12-18T09:17:31.333Z,-3.83
2022-12-18T09:18:31.019Z,-3.82
2022-12-18T09:19:30.993Z,-3.94
2022-12-18T09:20:31.019Z,-3.90
2022-12-18T09:21:30.986Z,-3.85
2022-12-18T09:22:30.974Z,-3.76
2022-12-18T09:23:30.954Z,-3.69
2022-12-18T09:24:30.961Z,-3.62
2022-12-18T09:25:31.214Z,-3.57
2022-12-18T09:26:31.221Z,-3.57
2022-12-18T09:27:30.924Z,-3.53
2022-12-18T09:28:30.914Z,-3.57
2022-12-18T09:29:31.219Z,-3.53
2022-12-18T09:30:30.950Z,-3.57
2022-12-18T09:31:31.121Z,-3.66
2022-12-18T09:32:31.154Z,-3.76
2022-12-18T09:33:31.196Z,-3.75
2022-12-18T09:34:30.891Z,-3.63
2022-12-18T09:35:30.864Z,-3.57
2022-12-18T09:36:30.879Z,-3.54
2022-12-18T09:37:31.037Z,-3.56
2022-12-18T09:38:30.846Z,-3.54
2022-12-18T09:39:30.803Z,-3.56
2022-12-18T09:40:30.913Z,-3.49
2022-12-18T09:41:30.781Z,-3.46
2022-12-18T09:42:30.792Z,-3.43
2022-12-18T09:43:31.013Z,-3.39
2022-12-18T09:44:30.906Z,-3.45
2022-12-18T09:45:30.711Z,-3.45
2022-12-18T09:46:30.846Z,-3.43
2022-12-18T09:47:30.702Z,-3.38
2022-12-18T09:48:30.721Z,-3.35
2022-12-18T09:49:30.690Z,-3.27
2022-12-18T09:50:31.486Z,-3.28
2022-12-18T09:51:30.951Z,-3.27
2022-12-18T09:52:30.967Z,-3.25
2022-12-18T09:53:30.669Z,-3.27
2022-12-18T09:54:30.681Z,-3.30
2022-12-18T09:55:36.696Z,-3.27
2022-12-18T09:56:31.627Z,-3.25
2022-12-18T09:57:30.591Z,-3.21
2022-12-18T09:58:30.594Z,-3.21
2022-12-18T09:59:30.903Z,-3.18
2022-12-18T10:00:30.648Z,-3.14
2022-12-18T10:01:41.368Z,-3.10
2022-12-18T10:02:32.035Z,-3.06
2022-12-18T10:03:30.814Z,-3.09
2022-12-18T10:04:30.630Z,-3.07
2022-12-18T10:05:30.538Z,-3.05
2022-12-18T10:06:30.888Z,-3.06
2022-12-18T10:07:30.546Z,-3.06
2022-12-18T10:08:30.795Z,-3.07
2022-12-18T10:09:30.563Z,-3.06
2022-12-18T10:10:30.735Z,-3.03
2022-12-18T10:11:30.482Z,-3.03
2022-12-18T10:12:30.560Z,-3.00
2022-12-18T10:13:30.513Z,-2.92
2022-12-18T10:14:30.512Z,-2.86
2022-12-18T10:15:30.763Z,-2.88
2022-12-18T10:16:30.721Z,-2.88
2022-12-18T10:17:30.397Z,-2.96
2022-12-18T10:18:30.400Z,-2.91
2022-12-18T10:19:30.512Z,-2.85
2022-12-18T10:20:30.414Z,-2.81
2022-12-18T10:21:30.661Z,-2.78
2022-12-18T10:22:30.355Z,-2.79
2022-12-18T10:23:30.385Z,-2.82
2022-12-18T10:24:30.374Z,-2.79
2022-12-18T10:25:30.453Z,-2.79
2022-12-18T10:26:31.444Z,-2.84
2022-12-18T10:27:30.604Z,-2.92
2022-12-18T10:28:30.564Z,-2.91
2022-12-18T10:29:30.335Z,-2.88
2022-12-18T10:30:30.352Z,-2.89
2022-12-18T10:31:30.394Z,-2.88
2022-12-18T10:32:30.267Z,-2.84
2022-12-18T10:33:30.291Z,-2.82
2022-12-18T10:34:30.275Z,-2.78
2022-12-18T10:35:30.491Z,-2.74
2022-12-18T10:36:30.228Z,-2.74
2022-12-18T10:37:30.237Z,-2.71
2022-12-18T10:38:30.226Z,-2.67
2022-12-18T10:39:30.208Z,-2.61
2022-12-18T10:40:30.408Z,-2.55
2022-12-18T10:41:30.198Z,-2.50
2022-12-18T10:42:31.179Z,-2.49
2022-12-18T10:43:30.191Z,-2.48
2022-12-18T10:44:30.147Z,-2.50
2022-12-18T10:45:30.177Z,-2.55
2022-12-18T10:46:30.352Z,-2.53
2022-12-18T10:47:30.096Z,-2.49
2022-12-18T10:48:30.119Z,-2.46
2022-12-18T10:49:30.088Z,-2.49
2022-12-18T10:50:47.138Z,-2.43
2022-12-18T10:51:31.627Z,-2.49
2022-12-18T10:52:30.298Z,-2.53
2022-12-18T10:53:30.058Z,-2.53
2022-12-18T10:54:30.330Z,-2.56
2022-12-18T10:55:30.304Z,-2.63
2022-12-18T10:56:30.009Z,-2.77
2022-12-18T10:57:30.049Z,-2.74
2022-12-18T10:58:30.066Z,-2.73
2022-12-18T10:59:30.002Z,-2.67
2022-12-18T11:00:30.034Z,-2.63
2022-12-18T11:01:30.105Z,-2.58
2022-12-18T11:02:30.493Z,-2.55
2022-12-18T11:03:29.980Z,-2.53
2022-12-18T11:04:29.962Z,-2.53
2022-12-18T11:05:29.994Z,-2.56
2022-12-18T11:06:30.026Z,-2.61
2022-12-18T11:07:29.960Z,-2.64
2022-12-18T11:08:30.214Z,-2.67
2022-12-18T11:09:29.975Z,-2.66
2022-12-18T11:10:29.914Z,-2.70
2022-12-18T11:11:29.887Z,-2.70
2022-12-18T11:12:30.158Z,-2.70
2022-12-18T11:13:29.858Z,-2.79
2022-12-18T11:14:29.834Z,-2.84
2022-12-18T11:15:29.860Z,-2.86
2022-12-18T11:16:30.093Z,-2.82
2022-12-18T11:17:29.815Z,-2.82
2022-12-18T11:18:29.912Z,-2.77
2022-12-18T11:19:29.812Z,-2.73
2022-12-18T11:20:30.061Z,-2.71
2022-12-18T11:21:29.851Z,-2.66
2022-12-18T11:22:29.798Z,-2.63
2022-12-18T11:23:29.777Z,-2.68
2022-12-18T11:24:29.749Z,-2.68
2022-12-18T11:25:33.430Z,-2.71
2022-12-18T11:26:29.960Z,-2.74
2022-12-18T11:27:29.730Z,-2.73
2022-12-18T11:28:29.697Z,-2.70
2022-12-18T11:29:29.709Z,-2.66
2022-12-18T11:30:29.699Z,-2.63
2022-12-18T11:31:29.802Z,-2.58
2022-12-18T11:32:29.994Z,-2.60
2022-12-18T11:33:29.681Z,-2.58
2022-12-18T11:34:30.350Z,-2.56
2022-12-18T11:35:29.686Z,-2.60
2022-12-18T11:36:29.638Z,-2.58
2022-12-18T11:37:29.879Z,-2.56
2022-12-18T11:38:29.853Z,-2.55
2022-12-18T11:39:29.675Z,-2.52
2022-12-18T11:40:29.582Z,-2.53
2022-12-18T11:41:29.636Z,-2.50
2022-12-18T11:42:29.562Z,-2.48
2022-12-18T11:43:29.561Z,-2.50
2022-12-18T11:44:29.807Z,-2.49
2022-12-18T11:45:29.850Z,-2.49
2022-12-18T11:46:29.818Z,-2.45
2022-12-18T11:47:29.574Z,-2.49
2022-12-18T11:48:29.499Z,-2.50
2022-12-18T11:49:29.692Z,-2.49
2022-12-18T11:50:29.523Z,-2.58
2022-12-18T11:51:29.722Z,-2.66
2022-12-18T11:52:30.340Z,-2.70
2022-12-18T11:53:29.447Z,-2.73
2022-12-18T11:54:29.522Z,-2.77
2022-12-18T11:55:29.435Z,-2.77
2022-12-18T11:56:29.642Z,-2.78
2022-12-18T11:57:29.686Z,-2.74
2022-12-18T11:58:31.513Z,-2.71
2022-12-18T11:59:29.421Z,-2.68
2022-12-18T12:00:29.508Z,-2.68
2022-12-18T12:01:29.802Z,-2.68
2022-12-18T12:02:29.518Z,-2.70
2022-12-18T12:03:29.531Z,-2.70
2022-12-18T12:04:29.714Z,-2.71
2022-12-18T12:05:29.396Z,-2.78
2022-12-18T12:06:29.344Z,-2.78
2022-12-18T12:07:29.332Z,-2.77
2022-12-18T12:08:29.324Z,-2.70
2022-12-18T12:09:29.592Z,-2.70
2022-12-18T12:10:29.343Z,-2.70
2022-12-18T12:11:29.293Z,-2.73
2022-12-18T12:12:29.249Z,-2.77
2022-12-18T12:13:29.282Z,-2.78
2022-12-18T12:14:29.256Z,-2.82
2022-12-18T12:15:29.460Z,-2.81
2022-12-18T12:16:29.521Z,-2.77
2022-12-18T12:17:29.210Z,-2.74
2022-12-18T12:18:29.236Z,-2.73
2022-12-18T12:19:29.242Z,-2.68
2022-12-18T12:20:33.524Z,-2.66
2022-12-18T12:21:30.183Z,-2.60
2022-12-18T12:22:29.223Z,-2.64
2022-12-18T12:23:29.184Z,-2.63
2022-12-18T12:24:29.262Z,-2.60
2022-12-18T12:25:29.135Z,-2.58
2022-12-18T12:26:29.126Z,-2.56
2022-12-18T12:27:29.333Z,-2.53
2022-12-18T12:28:29.332Z,-2.52
2022-12-18T12:29:29.268Z,-2.52
2022-12-18T12:30:29.144Z,-2.53
2022-12-18T12:31:29.202Z,-2.55
2022-12-18T12:32:29.067Z,-2.55
2022-12-18T12:33:29.066Z,-2.56
2022-12-18T12:34:29.191Z,-2.56
2022-12-18T12:35:29.337Z,-2.53
2022-12-18T12:36:29.086Z,-2.56
2022-12-18T12:37:29.085Z,-2.56
2022-12-18T12:38:29.062Z,-2.60
2022-12-18T12:39:29.009Z,-2.56
2022-12-18T12:41:29.987Z,-2.53
2022-12-18T12:42:29.224Z,-2.49
2022-12-18T12:43:28.959Z,-2.45
2022-12-18T12:44:29.029Z,-2.43
2022-12-18T12:45:28.971Z,-2.43
2022-12-18T12:46:28.939Z,-2.46
2022-12-18T12:47:28.906Z,-2.49
2022-12-18T12:48:28.911Z,-2.49
2022-12-18T12:49:28.941Z,-2.48
2022-12-18T12:50:28.897Z,-2.45
2022-12-18T12:51:28.849Z,-2.46
2022-12-18T12:52:29.071Z,-2.52
2022-12-18T12:53:28.847Z,-2.52